createdAt,value
2022-08-26T00:01:56.859Z,72.72
2022-08-26T00:04:26.124Z,72.58
2022-08-26T00:06:57.052Z,72.86
2022-08-26T00:09:25.522Z,73.02
2022-08-26T00:11:54.089Z,73.23
2022-08-26T00:14:24.203Z,73.08
2022-08-26T00:16:55.682Z,73.66
2022-08-26T00:19:23.225Z,73.73
2022-08-26T00:21:50.571Z,73.91
2022-08-26T00:24:19.807Z,74.62
2022-08-26T00:26:47.291Z,74.58
2022-08-26T00:29:18.343Z,74.44
2022-08-26T00:31:45.790Z,74.62
2022-08-26T00:34:13.927Z,74.94
2022-08-26T00:36:41.033Z,75.08
2022-08-26T00:39:08.625Z,74.81
2022-08-26T00:41:41.020Z,74.84
2022-08-26T00:44:11.223Z,74.97
2022-08-26T00:46:46.897Z,75.30
2022-08-26T00:49:20.511Z,75.23
2022-08-26T00:51:57.091Z,75.80
2022-08-26T00:54:27.837Z,75.92
2022-08-26T00:56:59.871Z,76.21
2022-08-26T00:59:32.920Z,76.41
2022-08-26T01:02:02.926Z,76.63
2022-08-26T01:04:34.335Z,76.52
2022-08-26T01:07:02.087Z,76.70
2022-08-26T01:09:29.863Z,76.51
2022-08-26T01:11:59.698Z,76.74
2022-08-26T01:14:33.313Z,77.33
2022-08-26T01:17:05.084Z,77.58
2022-08-26T01:19:42.695Z,77.65
2022-08-26T01:22:28.253Z,77.54
2022-08-26T01:24:59.131Z,77.46
2022-08-26T01:27:32.690Z,77.56
2022-08-26T01:30:01.550Z,77.92
2022-08-26T01:32:31.429Z,78.20
2022-08-26T01:34:59.896Z,77.33
2022-08-26T01:37:33.817Z,77.36
2022-08-26T01:40:01.130Z,77.05
2022-08-26T01:42:29.496Z,77.07
2022-08-26T01:45:06.549Z,77.14
2022-08-26T01:47:37.226Z,76.79
2022-08-26T01:50:18.089Z,77.11
2022-08-26T01:52:57.635Z,77.23
2022-08-26T01:55:33.215Z,76.96
2022-08-26T01:58:05.686Z,77.38
2022-08-26T02:00:34.747Z,76.87
2022-08-26T02:03:18.720Z,77.35
2022-08-26T02:05:59.255Z,77.80
2022-08-26T02:08:53.012Z,78.37
2022-08-26T02:11:20.091Z,77.92
2022-08-26T02:13:53.145Z,77.88
2022-08-26T02:16:25.171Z,78.11
2022-08-26T02:18:54.283Z,78.14
2022-08-26T02:21:21.979Z,78.52
2022-08-26T02:23:52.548Z,77.87
2022-08-26T02:26:27.005Z,78.58
2022-08-26T02:29:06.295Z,79.22
2022-08-26T02:31:34.589Z,79.11
2022-08-26T02:34:15.543Z,79.33
2022-08-26T02:36:43.125Z,78.44
2022-08-26T02:39:10.403Z,79.24
2022-08-26T02:41:45.229Z,79.69
2022-08-26T02:44:13.357Z,79.78
2022-08-26T02:46:40.782Z,79.12
2022-08-26T02:49:09.000Z,79.06
2022-08-26T02:51:35.866Z,79.00
2022-08-26T02:54:02.887Z,79.45
2022-08-26T02:56:34.483Z,79.76
2022-08-26T02:59:02.481Z,79.90
2022-08-26T03:01:34.230Z,79.51
2022-08-26T03:04:05.103Z,79.67
2022-08-26T03:06:32.771Z,79.60
2022-08-26T03:08:59.851Z,79.93
2022-08-26T03:11:32.245Z,79.55
2022-08-26T03:14:01.775Z,79.56
2022-08-26T03:16:37.042Z,79.62
2022-08-26T03:19:06.623Z,79.68
2022-08-26T03:21:36.959Z,79.50
2022-08-26T03:24:05.291Z,79.26
2022-08-26T03:26:32.200Z,79.95
2022-08-26T03:29:17.503Z,79.76
2022-08-26T03:31:44.455Z,80.14
2022-08-26T03:34:14.351Z,80.29
2022-08-26T03:36:42.234Z,80.29
2022-08-26T03:39:11.387Z,80.22
2022-08-26T03:41:39.342Z,79.91
2022-08-26T03:44:09.098Z,80.00
2022-08-26T03:46:36.704Z,80.04
2022-08-26T03:49:06.070Z,80.12
2022-08-26T03:51:34.868Z,79.87
2022-08-26T03:54:08.356Z,79.88
2022-08-26T03:56:35.411Z,80.17
2022-08-26T03:59:02.554Z,80.36
2022-08-26T04:01:31.005Z,80.19
2022-08-26T04:04:00.584Z,80.14
2022-08-26T04:06:58.547Z,81.07
2022-08-26T04:09:27.673Z,79.94
2022-08-26T04:11:55.557Z,80.01
2022-08-26T04:14:27.179Z,80.52
2022-08-26T04:16:56.852Z,80.16
2022-08-26T04:19:25.599Z,79.85
2022-08-26T04:21:54.119Z,80.13
2022-08-26T04:24:24.851Z,80.60
2022-08-26T04:26:52.508Z,80.89
2022-08-26T04:29:24.230Z,80.72
2022-08-26T04:31:55.459Z,80.87
2022-08-26T04:34:28.693Z,80.89
2022-08-26T04:36:58.267Z,81.22
2022-08-26T04:39:27.658Z,81.21
2022-08-26T04:41:55.405Z,81.10
2022-08-26T04:44:26.124Z,80.73
2022-08-26T04:46:53.950Z,81.16
2022-08-26T04:49:23.287Z,81.01
2022-08-26T04:51:53.148Z,80.59
2022-08-26T04:54:19.952Z,80.75
2022-08-26T04:56:49.681Z,80.96
2022-08-26T04:59:18.212Z,80.95
2022-08-26T05:01:49.255Z,81.09
2022-08-26T05:04:18.936Z,80.98
2022-08-26T05:06:50.237Z,80.89
2022-08-26T05:09:18.770Z,81.22
2022-08-26T05:11:48.322Z,81.53
2022-08-26T05:14:18.770Z,81.26
2022-08-26T05:16:45.596Z,81.07
2022-08-26T05:19:18.919Z,81.17
2022-08-26T05:21:48.535Z,81.11
2022-08-26T05:24:16.769Z,81.34
2022-08-26T05:26:44.607Z,81.45
2022-08-26T05:29:12.343Z,81.44
2022-08-26T05:31:39.579Z,81.50
2022-08-26T05:34:08.562Z,81.57
2022-08-26T05:36:37.134Z,81.66
2022-08-26T05:39:06.722Z,81.59
2022-08-26T05:41:38.452Z,81.52
2022-08-26T05:44:10.230Z,81.64
2022-08-26T05:46:40.226Z,81.60
2022-08-26T05:49:12.218Z,81.66
2022-08-26T05:51:47.583Z,81.52
2022-08-26T05:54:21.344Z,82.99
2022-08-26T05:56:53.136Z,81.88
2022-08-26T05:59:23.981Z,81.40
2022-08-26T06:01:53.056Z,81.41
2022-08-26T06:04:20.228Z,81.32
2022-08-26T06:06:47.391Z,81.14
2022-08-26T06:09:14.696Z,81.02
2022-08-26T06:11:45.482Z,80.68
2022-08-26T06:14:12.371Z,81.09
2022-08-26T06:16:43.892Z,81.18
2022-08-26T06:19:15.819Z,81.09
2022-08-26T06:21:47.895Z,81.48
2022-08-26T06:24:39.928Z,81.29
2022-08-26T06:27:11.473Z,81.65
2022-08-26T06:29:40.056Z,81.21
2022-08-26T06:32:07.103Z,81.05
2022-08-26T06:34:35.906Z,81.36
2022-08-26T06:37:03.724Z,81.07
2022-08-26T06:39:31.968Z,80.85
2022-08-26T06:42:00.634Z,80.68
2022-08-26T06:44:28.072Z,80.03
2022-08-26T06:46:55.098Z,80.03
2022-08-26T06:49:25.642Z,79.79
2022-08-26T06:51:58.751Z,79.38
2022-08-26T06:54:27.839Z,79.43
2022-08-26T06:56:57.057Z,79.07
2022-08-26T06:59:25.395Z,79.12
2022-08-26T07:01:52.412Z,78.62
2022-08-26T07:04:22.411Z,77.83
2022-08-26T07:06:52.897Z,77.25
2022-08-26T07:09:27.071Z,76.60
2022-08-26T07:11:56.672Z,76.07
2022-08-26T07:14:26.186Z,75.95
2022-08-26T07:16:54.612Z,75.46
2022-08-26T07:19:31.015Z,75.12
2022-08-26T07:22:05.684Z,75.33
2022-08-26T07:24:35.735Z,75.33
2022-08-26T07:27:08.710Z,75.69
2022-08-26T07:29:37.463Z,75.54
2022-08-26T07:32:05.679Z,75.74
2022-08-26T07:34:33.999Z,75.39
2022-08-26T07:37:01.441Z,74.51
2022-08-26T07:39:31.500Z,74.19
2022-08-26T07:42:01.509Z,73.56
2022-08-26T07:44:35.744Z,72.67
2022-08-26T07:47:02.766Z,72.40
2022-08-26T07:49:38.271Z,72.17
2022-08-26T07:52:06.568Z,71.98
2022-08-26T07:54:33.638Z,71.75
2022-08-26T07:57:00.986Z,70.42
2022-08-26T07:59:32.152Z,70.50
2022-08-26T08:01:59.971Z,69.10
2022-08-26T08:04:28.888Z,69.42
2022-08-26T08:06:56.105Z,69.19
2022-08-26T08:09:24.730Z,69.08
2022-08-26T08:11:53.101Z,68.02
2022-08-26T08:14:22.298Z,68.42
2022-08-26T08:16:51.159Z,67.30
2022-08-26T08:19:23.841Z,67.03
2022-08-26T08:21:51.873Z,66.96
2022-08-26T08:24:19.292Z,66.74
2022-08-26T08:26:46.328Z,65.14
2022-08-26T08:29:14.148Z,64.83
2022-08-26T08:31:58.387Z,64.58
2022-08-26T08:34:28.619Z,63.62
2022-08-26T08:36:57.537Z,62.93
2022-08-26T08:39:25.323Z,62.64
2022-08-26T08:42:14.193Z,62.13
2022-08-26T08:44:51.767Z,62.00
2022-08-26T08:47:32.058Z,60.42
2022-08-26T08:50:10.660Z,59.95
2022-08-26T08:52:41.516Z,59.75
2022-08-26T08:55:11.888Z,58.33
2022-08-26T08:58:14.582Z,56.90
2022-08-26T09:00:56.758Z,56.12
2022-08-26T09:03:46.901Z,57.80
2022-08-26T09:06:18.950Z,57.76
2022-08-26T09:08:50.067Z,56.69
2022-08-26T09:11:20.612Z,57.31
2022-08-26T09:13:57.901Z,57.41
2022-08-26T09:16:50.084Z,56.44
2022-08-26T09:19:37.900Z,54.76
2022-08-26T09:22:09.369Z,56.53
2022-08-26T09:24:41.876Z,55.48
2022-08-26T09:27:40.779Z,54.90
2022-08-26T09:30:24.095Z,54.56
2022-08-26T09:33:28.270Z,53.91
2022-08-26T09:36:36.462Z,53.60
2022-08-26T09:39:31.281Z,54.45
2022-08-26T09:42:14.282Z,54.25
2022-08-26T09:45:08.497Z,50.49
2022-08-26T09:48:02.197Z,52.58
2022-08-26T09:50:58.403Z,51.33
2022-08-26T09:53:34.630Z,51.79
2022-08-26T09:56:16.326Z,51.56
2022-08-26T09:58:47.423Z,51.31
2022-08-26T10:01:23.419Z,51.29
2022-08-26T10:03:51.637Z,51.11
2022-08-26T10:06:21.161Z,50.54
2022-08-26T10:09:11.079Z,49.29
2022-08-26T10:11:48.891Z,50.00
2022-08-26T10:14:34.804Z,49.99
2022-08-26T10:17:30.733Z,49.60
2022-08-26T10:20:09.847Z,47.61
2022-08-26T10:22:59.034Z,48.36
2022-08-26T10:26:09.672Z,48.89
2022-08-26T10:28:49.130Z,48.40
2022-08-26T10:31:29.280Z,47.16
2022-08-26T10:33:58.899Z,46.91
2022-08-26T10:37:15.206Z,46.34
2022-08-26T10:39:46.071Z,47.82
2022-08-26T10:42:33.381Z,46.66
2022-08-26T10:45:11.793Z,46.14
2022-08-26T10:47:54.896Z,47.46
2022-08-26T10:50:30.419Z,45.15
2022-08-26T10:53:42.639Z,46.48
2022-08-26T10:56:49.435Z,46.67
2022-08-26T10:59:39.332Z,47.01
2022-08-26T11:02:47.201Z,46.75
2022-08-26T11:05:23.715Z,47.62
2022-08-26T11:07:54.975Z,46.73
2022-08-26T11:10:21.733Z,45.85
2022-08-26T11:12:56.270Z,45.35
2022-08-26T11:15:28.244Z,45.89
2022-08-26T11:18:05.353Z,43.99
2022-08-26T11:20:45.985Z,44.35
2022-08-26T11:23:14.473Z,44.90
2022-08-26T11:25:57.157Z,45.52
2022-08-26T11:28:48.200Z,44.57
2022-08-26T11:31:27.465Z,44.61
2022-08-26T11:34:03.694Z,44.41
2022-08-26T11:36:45.731Z,44.95
2022-08-26T11:39:54.429Z,46.82
2022-08-26T11:42:44.530Z,44.02
2022-08-26T11:45:18.175Z,44.45
2022-08-26T11:47:46.674Z,44.85
2022-08-26T11:50:28.479Z,44.18
2022-08-26T11:53:02.443Z,44.86
2022-08-26T11:55:33.114Z,44.99
2022-08-26T11:58:02.516Z,44.65
2022-08-26T12:00:49.768Z,45.01
2022-08-26T12:03:23.058Z,43.59
2022-08-26T12:05:52.468Z,44.49
2022-08-26T12:08:28.120Z,44.59
2022-08-26T12:11:13.879Z,43.63
2022-08-26T12:13:41.993Z,42.46
2022-08-26T12:16:09.930Z,43.44
2022-08-26T12:18:39.144Z,43.69
2022-08-26T12:21:24.903Z,43.26
2022-08-26T12:23:55.476Z,43.24
2022-08-26T12:26:29.686Z,43.37
2022-08-26T12:29:20.234Z,43.99
2022-08-26T12:32:10.135Z,43.77
2022-08-26T12:34:37.346Z,43.04
2022-08-26T12:37:04.630Z,43.60
2022-08-26T12:39:37.726Z,43.25
2022-08-26T12:42:12.899Z,43.54
2022-08-26T12:44:54.110Z,44.02
2022-08-26T12:47:41.858Z,44.23
2022-08-26T12:50:31.054Z,44.15
2022-08-26T12:53:03.049Z,44.13
2022-08-26T12:55:52.340Z,43.52
2022-08-26T12:58:27.307Z,43.75
2022-08-26T13:01:04.215Z,44.57
2022-08-26T13:03:33.954Z,43.42
2022-08-26T13:06:31.828Z,43.27
2022-08-26T13:09:04.509Z,43.85
2022-08-26T13:11:35.964Z,43.20
2022-08-26T13:14:21.224Z,43.58
2022-08-26T13:16:53.119Z,44.12
2022-08-26T13:19:25.784Z,44.62
2022-08-26T13:22:00.985Z,43.79
2022-08-26T13:24:56.327Z,43.13
2022-08-26T13:27:26.487Z,43.63
2022-08-26T13:29:54.598Z,44.33
2022-08-26T13:32:22.653Z,44.61
2022-08-26T13:34:56.673Z,43.85
2022-08-26T13:37:29.295Z,44.83
2022-08-26T13:40:05.684Z,44.37
2022-08-26T13:42:32.751Z,44.70
2022-08-26T13:45:01.322Z,44.14
2022-08-26T13:47:28.792Z,44.52
2022-08-26T13:49:56.496Z,44.51
2022-08-26T13:52:30.056Z,44.97
2022-08-26T13:55:00.337Z,44.42
2022-08-26T13:57:30.200Z,44.31
2022-08-26T13:59:59.500Z,43.95
2022-08-26T14:02:28.013Z,43.95
2022-08-26T14:04:55.529Z,44.07
2022-08-26T14:07:23.112Z,44.17
2022-08-26T14:09:50.488Z,43.51
2022-08-26T14:12:18.100Z,44.42
2022-08-26T14:14:45.183Z,44.43
2022-08-26T14:17:18.574Z,43.99
2022-08-26T14:19:47.355Z,43.38
2022-08-26T14:22:17.490Z,43.93
2022-08-26T14:24:45.135Z,44.37
2022-08-26T14:27:13.389Z,44.48
2022-08-26T14:29:40.755Z,44.60
2022-08-26T14:32:25.647Z,44.37
2022-08-26T14:34:53.119Z,44.45
2022-08-26T14:37:20.736Z,44.70
2022-08-26T14:39:48.098Z,44.64
2022-08-26T14:42:23.954Z,44.24
2022-08-26T14:44:56.867Z,44.87
2022-08-26T14:47:23.799Z,44.04
2022-08-26T14:49:51.376Z,44.85
2022-08-26T14:52:18.524Z,44.75
2022-08-26T14:54:45.498Z,44.91
2022-08-26T14:57:14.839Z,44.91
2022-08-26T14:59:49.612Z,45.01
2022-08-26T15:02:25.260Z,44.78
2022-08-26T15:04:59.960Z,44.78
2022-08-26T15:07:27.086Z,44.87
2022-08-26T15:09:53.912Z,44.58
2022-08-26T15:12:21.559Z,44.30
2022-08-26T15:14:48.483Z,43.99
2022-08-26T15:17:15.291Z,44.74
2022-08-26T15:19:42.220Z,44.67
2022-08-26T15:22:09.181Z,44.28
2022-08-26T15:24:36.674Z,44.58
2022-08-26T15:27:04.244Z,44.64
2022-08-26T15:29:31.248Z,44.36
2022-08-26T15:32:02.257Z,44.03
2022-08-26T15:34:29.075Z,44.85
2022-08-26T15:36:56.180Z,44.62
2022-08-26T15:39:23.020Z,44.73
2022-08-26T15:41:50.493Z,44.81
2022-08-26T15:44:18.552Z,44.83
2022-08-26T15:46:47.777Z,45.09
2022-08-26T15:49:17.784Z,45.07
2022-08-26T15:51:48.011Z,45.12
2022-08-26T15:54:17.211Z,44.94
2022-08-26T15:56:44.412Z,44.78
2022-08-26T15:59:12.146Z,44.88
2022-08-26T16:01:39.830Z,44.98
2022-08-26T16:04:07.729Z,44.98
2022-08-26T16:06:38.588Z,44.76
2022-08-26T16:09:07.363Z,44.60
2022-08-26T16:11:38.904Z,44.31
2022-08-26T16:14:07.325Z,44.48
2022-08-26T16:16:39.544Z,44.44
2022-08-26T16:19:08.073Z,44.43
2022-08-26T16:21:35.901Z,44.48
2022-08-26T16:24:03.669Z,44.97
2022-08-26T16:26:34.154Z,45.04
2022-08-26T16:29:03.827Z,45.34
2022-08-26T16:31:30.929Z,45.16
2022-08-26T16:33:57.946Z,44.96
2022-08-26T16:36:24.743Z,45.23
2022-08-26T16:38:55.413Z,45.01
2022-08-26T16:41:28.718Z,44.88
2022-08-26T16:43:56.055Z,44.66
2022-08-26T16:46:26.003Z,45.40
2022-08-26T16:48:54.875Z,45.99
2022-08-26T16:51:24.333Z,45.72
2022-08-26T16:53:51.845Z,46.01
2022-08-26T16:56:23.115Z,46.60
2022-08-26T16:59:00.740Z,46.93
2022-08-26T17:01:28.813Z,47.15
2022-08-26T17:03:55.723Z,47.28
2022-08-26T17:06:22.610Z,47.58
2022-08-26T17:08:49.847Z,47.62
2022-08-26T17:11:16.771Z,47.74
2022-08-26T17:13:43.637Z,48.23
2022-08-26T17:16:12.356Z,47.97
2022-08-26T17:18:39.371Z,48.00
2022-08-26T17:21:10.157Z,47.88
2022-08-26T17:23:38.558Z,48.24
2022-08-26T17:26:05.838Z,48.92
2022-08-26T17:28:33.275Z,48.83
2022-08-26T17:31:01.422Z,49.03
2022-08-26T17:33:29.959Z,48.50
2022-08-26T17:35:57.066Z,48.54
2022-08-26T17:38:24.883Z,48.63
2022-08-26T17:40:52.148Z,48.98
2022-08-26T17:43:19.223Z,48.97
2022-08-26T17:45:46.814Z,49.18
2022-08-26T17:48:14.123Z,49.34
2022-08-26T17:50:42.785Z,49.35
2022-08-26T17:53:12.785Z,49.33
2022-08-26T17:55:48.048Z,49.36
2022-08-26T17:58:18.052Z,49.50
2022-08-26T18:00:50.838Z,49.50
2022-08-26T18:03:19.290Z,49.56
2022-08-26T18:05:51.486Z,49.76
2022-08-26T18:08:19.723Z,49.83
2022-08-26T18:10:47.210Z,50.30
2022-08-26T18:13:15.059Z,50.04
2022-08-26T18:15:46.048Z,49.88
2022-08-26T18:18:14.751Z,49.91
2022-08-26T18:20:43.721Z,50.39
2022-08-26T18:23:11.932Z,50.91
2022-08-26T18:25:43.860Z,51.37
2022-08-26T18:28:11.020Z,51.86
2022-08-26T18:30:38.212Z,52.08
2022-08-26T18:33:05.111Z,52.36
2022-08-26T18:35:31.963Z,52.53
2022-08-26T18:38:01.413Z,52.63
2022-08-26T18:40:41.054Z,52.80
2022-08-26T18:43:08.494Z,53.11
2022-08-26T18:45:35.386Z,53.38
2022-08-26T18:48:04.164Z,53.43
2022-08-26T18:50:31.244Z,53.61
2022-08-26T18:52:58.360Z,53.86
2022-08-26T18:55:25.547Z,54.05
2022-08-26T18:57:52.514Z,54.11
2022-08-26T19:00:19.458Z,54.36
2022-08-26T19:02:47.066Z,54.62
2022-08-26T19:05:19.449Z,54.86
2022-08-26T19:07:47.988Z,55.26
2022-08-26T19:10:15.289Z,55.39
2022-08-26T19:12:42.686Z,55.52
2022-08-26T19:15:11.432Z,55.85
2022-08-26T19:17:38.583Z,56.14
2022-08-26T19:20:06.576Z,56.33
2022-08-26T19:22:33.676Z,56.15
2022-08-26T19:25:01.440Z,56.20
2022-08-26T19:27:28.558Z,56.31
2022-08-26T19:29:56.547Z,56.17
2022-08-26T19:32:24.438Z,56.11
2022-08-26T19:34:54.763Z,56.22
2022-08-26T19:37:21.757Z,56.47
2022-08-26T19:39:48.892Z,56.54
2022-08-26T19:42:16.632Z,56.65
2022-08-26T19:45:02.551Z,56.84
2022-08-26T19:47:29.754Z,57.05
2022-08-26T19:49:57.407Z,57.40
2022-08-26T19:52:29.834Z,57.64
2022-08-26T19:54:58.710Z,57.76
2022-08-26T19:57:25.741Z,57.92
2022-08-26T19:59:52.585Z,58.18
2022-08-26T20:02:19.506Z,58.35
2022-08-26T20:04:46.422Z,58.39
2022-08-26T20:07:18.057Z,58.30
2022-08-26T20:09:47.339Z,58.42
2022-08-26T20:12:15.630Z,58.63
2022-08-26T20:14:43.661Z,59.02
2022-08-26T20:17:10.971Z,59.07
2022-08-26T20:19:56.880Z,59.12
2022-08-26T20:22:23.838Z,59.27
2022-08-26T20:24:52.302Z,59.50
2022-08-26T20:27:19.150Z,59.72
2022-08-26T20:29:46.008Z,60.05
2022-08-26T20:32:12.874Z,60.12
2022-08-26T20:34:40.117Z,60.57
2022-08-26T20:37:08.618Z,60.98
2022-08-26T20:39:36.046Z,60.74
2022-08-26T20:42:03.443Z,61.21
2022-08-26T20:44:30.324Z,60.93
2022-08-26T20:46:59.208Z,61.43
2022-08-26T20:49:28.328Z,61.50
2022-08-26T20:51:55.514Z,61.66
2022-08-26T20:54:28.261Z,61.78
2022-08-26T20:56:57.835Z,61.54
2022-08-26T20:59:25.723Z,62.11
2022-08-26T21:01:52.695Z,61.93
2022-08-26T21:04:24.318Z,61.82
2022-08-26T21:06:52.680Z,61.81
2022-08-26T21:09:22.593Z,61.76
2022-08-26T21:11:50.263Z,61.83
2022-08-26T21:14:19.122Z,61.95
2022-08-26T21:16:46.735Z,62.04
2022-08-26T21:19:18.121Z,61.99
2022-08-26T21:21:47.643Z,61.93
2022-08-26T21:24:15.154Z,62.09
2022-08-26T21:26:42.125Z,62.27
2022-08-26T21:29:10.072Z,62.07
2022-08-26T21:31:42.174Z,62.18
2022-08-26T21:34:12.752Z,62.56
2022-08-26T21:36:39.562Z,62.28
2022-08-26T21:39:11.278Z,62.50
2022-08-26T21:41:40.323Z,62.62
2022-08-26T21:44:07.861Z,62.96
2022-08-26T21:46:37.406Z,62.98
2022-08-26T21:49:08.247Z,63.59
2022-08-26T21:51:42.973Z,64.11
2022-08-26T21:54:11.596Z,64.08
2022-08-26T21:56:44.750Z,64.37
2022-08-26T21:59:13.021Z,64.51
2022-08-26T22:01:40.007Z,65.12
2022-08-26T22:04:09.309Z,65.09
2022-08-26T22:06:44.778Z,65.17
2022-08-26T22:09:14.492Z,65.26
2022-08-26T22:11:42.272Z,65.55
2022-08-26T22:14:10.396Z,65.91
2022-08-26T22:16:37.787Z,66.33
2022-08-26T22:19:04.656Z,66.54
2022-08-26T22:21:32.364Z,66.94
2022-08-26T22:23:59.295Z,66.91
2022-08-26T22:26:30.779Z,67.27
2022-08-26T22:28:59.759Z,67.16
2022-08-26T22:31:37.701Z,67.45
2022-08-26T22:34:12.646Z,67.43
2022-08-26T22:36:44.186Z,67.47
2022-08-26T22:39:14.002Z,67.63
2022-08-26T22:41:43.177Z,67.47
2022-08-26T22:44:12.005Z,67.46
2022-08-26T22:46:40.893Z,67.32
2022-08-26T22:49:10.995Z,67.27
2022-08-26T22:51:38.070Z,67.40
2022-08-26T22:54:06.094Z,67.57
2022-08-26T22:56:32.956Z,67.53
2022-08-26T22:58:59.988Z,67.42
2022-08-26T23:01:27.047Z,68.06
2022-08-26T23:03:54.013Z,67.87
2022-08-26T23:06:21.333Z,68.24
2022-08-26T23:08:48.315Z,68.28
2022-08-26T23:11:15.155Z,68.45
2022-08-26T23:13:42.691Z,68.28
2022-08-26T23:16:13.161Z,68.53
2022-08-26T23:18:41.743Z,68.38
2022-08-26T23:21:09.476Z,68.85
2022-08-26T23:23:38.140Z,68.75
2022-08-26T23:26:07.927Z,68.96
2022-08-26T23:28:37.594Z,68.96
2022-08-26T23:31:05.727Z,68.69
2022-08-26T23:33:51.072Z,68.78
2022-08-26T23:36:22.572Z,69.19
2022-08-26T23:38:52.800Z,68.90
2022-08-26T23:41:22.567Z,68.95
2022-08-26T23:43:50.282Z,69.14
2022-08-26T23:46:18.168Z,69.52
2022-08-26T23:48:45.022Z,69.68
2022-08-26T23:51:30.683Z,69.54
2022-08-26T23:53:58.094Z,70.09
2022-08-26T23:56:26.667Z,70.42
2022-08-26T23:58:55.299Z,70.35
